sensor_id;sensor_type;location;lat;lon;timestamp;P1;durP1;ratioP1;P2;durP2;ratioP2
1725;SDS011;41776;48.260;8.928;2023-05-21T00:01:36;15.77;;;8.50;;
1725;SDS011;41776;48.260;8.928;2023-05-21T00:04:03;13.97;;;8.83;;
1725;SDS011;41776;48.260;8.928;2023-05-21T00:06:31;14.63;;;9.87;;
1725;SDS011;41776;48.260;8.928;2023-05-21T00:08:59;17.63;;;9.07;;
1725;SDS011;41776;48.260;8.928;2023-05-21T00:11:26;16.93;;;9.57;;
1725;SDS011;41776;48.260;8.928;2023-05-21T00:13:54;12.73;;;7.97;;
1725;SDS011;41776;48.260;8.928;2023-05-21T00:16:21;14.37;;;8.93;;
1725;SDS011;41776;48.260;8.928;2023-05-21T00:18:47;18.40;;;9.93;;
1725;SDS011;41776;48.260;8.928;2023-05-21T00:21:14;14.43;;;9.20;;
1725;SDS011;41776;48.260;8.928;2023-05-21T00:23:41;13.90;;;8.90;;
1725;SDS011;41776;48.260;8.928;2023-05-21T00:26:09;19.73;;;10.80;;
1725;SDS011;41776;48.260;8.928;2023-05-21T00:28:35;17.53;;;10.47;;
1725;SDS011;41776;48.260;8.928;2023-05-21T00:31:04;18.33;;;9.88;;
1725;SDS011;41776;48.260;8.928;2023-05-21T00:33:30;18.00;;;9.97;;
1725;SDS011;41776;48.260;8.928;2023-05-21T00:36:00;18.10;;;10.23;;
1725;SDS011;41776;48.260;8.928;2023-05-21T00:38:27;13.97;;;9.57;;
1725;SDS011;41776;48.260;8.928;2023-05-21T00:40:53;15.67;;;9.27;;
1725;SDS011;41776;48.260;8.928;2023-05-21T00:43:20;23.00;;;9.77;;
1725;SDS011;41776;48.260;8.928;2023-05-21T00:45:50;18.13;;;10.77;;
1725;SDS011;41776;48.260;8.928;2023-05-21T00:48:19;19.43;;;11.00;;
1725;SDS011;41776;48.260;8.928;2023-05-21T00:50:46;22.27;;;11.02;;
1725;SDS011;41776;48.260;8.928;2023-05-21T00:53:13;16.83;;;10.10;;
1725;SDS011;41776;48.260;8.928;2023-05-21T00:55:43;16.47;;;9.93;;
1725;SDS011;41776;48.260;8.928;2023-05-21T00:58:09;18.97;;;10.57;;
1725;SDS011;41776;48.260;8.928;2023-05-21T01:00:36;18.03;;;10.63;;
1725;SDS011;41776;48.260;8.928;2023-05-21T01:03:04;16.10;;;10.33;;
1725;SDS011;41776;48.260;8.928;2023-05-21T01:05:32;17.13;;;11.23;;
1725;SDS011;41776;48.260;8.928;2023-05-21T01:07:59;15.32;;;9.73;;
1725;SDS011;41776;48.260;8.928;2023-05-21T01:10:25;18.60;;;11.32;;
1725;SDS011;41776;48.260;8.928;2023-05-21T01:12:53;17.93;;;10.57;;
1725;SDS011;41776;48.260;8.928;2023-05-21T01:15:22;20.83;;;10.10;;
1725;SDS011;41776;48.260;8.928;2023-05-21T01:17:49;16.63;;;10.40;;
1725;SDS011;41776;48.260;8.928;2023-05-21T01:20:17;18.80;;;11.10;;
1725;SDS011;41776;48.260;8.928;2023-05-21T01:22:52;17.80;;;11.07;;
1725;SDS011;41776;48.260;8.928;2023-05-21T01:25:20;20.33;;;12.07;;
1725;SDS011;41776;48.260;8.928;2023-05-21T01:27:47;24.10;;;11.83;;
1725;SDS011;41776;48.260;8.928;2023-05-21T01:30:14;19.27;;;11.43;;
1725;SDS011;41776;48.260;8.928;2023-05-21T01:32:44;21.33;;;11.40;;
1725;SDS011;41776;48.260;8.928;2023-05-21T01:35:16;16.17;;;10.98;;
1725;SDS011;41776;48.260;8.928;2023-05-21T01:37:47;19.03;;;11.27;;
1725;SDS011;41776;48.260;8.928;2023-05-21T01:40:21;17.97;;;11.17;;
1725;SDS011;41776;48.260;8.928;2023-05-21T01:42:50;19.10;;;10.77;;
1725;SDS011;41776;48.260;8.928;2023-05-21T01:45:17;16.80;;;10.63;;
1725;SDS011;41776;48.260;8.928;2023-05-21T01:47:48;16.20;;;10.97;;
1725;SDS011;41776;48.260;8.928;2023-05-21T01:50:17;17.27;;;10.33;;
1725;SDS011;41776;48.260;8.928;2023-05-21T01:52:47;18.23;;;11.40;;
1725;SDS011;41776;48.260;8.928;2023-05-21T01:55:17;17.80;;;11.23;;
1725;SDS011;41776;48.260;8.928;2023-05-21T01:57:49;19.13;;;10.47;;
1725;SDS011;41776;48.260;8.928;2023-05-21T02:00:17;15.70;;;10.10;;
1725;SDS011;41776;48.260;8.928;2023-05-21T02:02:52;18.70;;;10.60;;
1725;SDS011;41776;48.260;8.928;2023-05-21T02:05:18;20.17;;;11.13;;
1725;SDS011;41776;48.260;8.928;2023-05-21T02:07:49;23.10;;;11.27;;
1725;SDS011;41776;48.260;8.928;2023-05-21T02:10:17;19.93;;;11.93;;
1725;SDS011;41776;48.260;8.928;2023-05-21T02:12:49;19.13;;;11.73;;
1725;SDS011;41776;48.260;8.928;2023-05-21T02:15:18;19.67;;;11.67;;
1725;SDS011;41776;48.260;8.928;2023-05-21T02:17:45;22.07;;;11.87;;
1725;SDS011;41776;48.260;8.928;2023-05-21T02:20:12;20.00;;;11.97;;
1725;SDS011;41776;48.260;8.928;2023-05-21T02:22:39;22.03;;;13.03;;
1725;SDS011;41776;48.260;8.928;2023-05-21T02:25:06;21.93;;;11.43;;
1725;SDS011;41776;48.260;8.928;2023-05-21T02:27:34;20.43;;;11.87;;
1725;SDS011;41776;48.260;8.928;2023-05-21T02:30:03;19.63;;;12.30;;
1725;SDS011;41776;48.260;8.928;2023-05-21T02:32:31;20.73;;;11.43;;
1725;SDS011;41776;48.260;8.928;2023-05-21T02:34:58;17.80;;;10.77;;
1725;SDS011;41776;48.260;8.928;2023-05-21T02:37:24;24.30;;;11.83;;
1725;SDS011;41776;48.260;8.928;2023-05-21T02:39:52;17.50;;;11.33;;
1725;SDS011;41776;48.260;8.928;2023-05-21T02:42:20;19.53;;;12.13;;
1725;SDS011;41776;48.260;8.928;2023-05-21T02:44:47;21.13;;;12.30;;
1725;SDS011;41776;48.260;8.928;2023-05-21T02:47:15;19.97;;;11.70;;
1725;SDS011;41776;48.260;8.928;2023-05-21T02:49:42;24.83;;;11.87;;
1725;SDS011;41776;48.260;8.928;2023-05-21T02:52:08;22.60;;;12.87;;
1725;SDS011;41776;48.260;8.928;2023-05-21T02:54:35;25.10;;;12.80;;
1725;SDS011;41776;48.260;8.928;2023-05-21T02:57:02;18.63;;;10.90;;
1725;SDS011;41776;48.260;8.928;2023-05-21T02:59:28;22.03;;;12.30;;
1725;SDS011;41776;48.260;8.928;2023-05-21T03:01:55;18.77;;;12.33;;
1725;SDS011;41776;48.260;8.928;2023-05-21T03:04:23;20.57;;;11.57;;
1725;SDS011;41776;48.260;8.928;2023-05-21T03:06:52;20.30;;;11.20;;
1725;SDS011;41776;48.260;8.928;2023-05-21T03:09:19;21.33;;;12.60;;
1725;SDS011;41776;48.260;8.928;2023-05-21T03:11:45;24.97;;;12.63;;
1725;SDS011;41776;48.260;8.928;2023-05-21T03:14:12;23.17;;;14.43;;
1725;SDS011;41776;48.260;8.928;2023-05-21T03:16:40;20.73;;;13.37;;
1725;SDS011;41776;48.260;8.928;2023-05-21T03:19:07;24.33;;;13.43;;
1725;SDS011;41776;48.260;8.928;2023-05-21T03:21:39;23.47;;;13.23;;
1725;SDS011;41776;48.260;8.928;2023-05-21T03:24:05;24.70;;;14.80;;
1725;SDS011;41776;48.260;8.928;2023-05-21T03:26:33;28.83;;;14.50;;
1725;SDS011;41776;48.260;8.928;2023-05-21T03:29:00;25.57;;;14.37;;
1725;SDS011;41776;48.260;8.928;2023-05-21T03:31:26;24.13;;;13.80;;
1725;SDS011;41776;48.260;8.928;2023-05-21T03:33:53;25.80;;;13.17;;
1725;SDS011;41776;48.260;8.928;2023-05-21T03:36:19;21.30;;;12.90;;
1725;SDS011;41776;48.260;8.928;2023-05-21T03:38:47;23.63;;;14.37;;
1725;SDS011;41776;48.260;8.928;2023-05-21T03:41:14;26.30;;;15.10;;
1725;SDS011;41776;48.260;8.928;2023-05-21T03:43:40;26.37;;;14.23;;
1725;SDS011;41776;48.260;8.928;2023-05-21T03:46:07;26.43;;;14.67;;
1725;SDS011;41776;48.260;8.928;2023-05-21T03:48:33;23.63;;;14.20;;
1725;SDS011;41776;48.260;8.928;2023-05-21T03:51:00;25.47;;;14.13;;
1725;SDS011;41776;48.260;8.928;2023-05-21T03:53:26;23.00;;;13.87;;
1725;SDS011;41776;48.260;8.928;2023-05-21T03:55:54;21.00;;;12.53;;
1725;SDS011;41776;48.260;8.928;2023-05-21T03:58:21;24.57;;;14.77;;
1725;SDS011;41776;48.260;8.928;2023-05-21T04:00:47;24.80;;;14.53;;
1725;SDS011;41776;48.260;8.928;2023-05-21T04:03:14;24.50;;;13.53;;
1725;SDS011;41776;48.260;8.928;2023-05-21T04:05:41;23.87;;;13.47;;
1725;SDS011;41776;48.260;8.928;2023-05-21T04:08:08;23.70;;;13.63;;
1725;SDS011;41776;48.260;8.928;2023-05-21T04:10:35;27.67;;;14.10;;
1725;SDS011;41776;48.260;8.928;2023-05-21T04:13:03;25.03;;;14.93;;
1725;SDS011;41776;48.260;8.928;2023-05-21T04:15:30;26.17;;;13.80;;
1725;SDS011;41776;48.260;8.928;2023-05-21T04:17:59;26.50;;;14.43;;
1725;SDS011;41776;48.260;8.928;2023-05-21T04:20:25;24.43;;;13.13;;
1725;SDS011;41776;48.260;8.928;2023-05-21T04:22:52;24.37;;;13.93;;
1725;SDS011;41776;48.260;8.928;2023-05-21T04:25:18;22.40;;;13.37;;
1725;SDS011;41776;48.260;8.928;2023-05-21T04:27:45;23.10;;;12.87;;
1725;SDS011;41776;48.260;8.928;2023-05-21T04:30:14;19.03;;;12.03;;
1725;SDS011;41776;48.260;8.928;2023-05-21T04:32:40;23.27;;;12.70;;
1725;SDS011;41776;48.260;8.928;2023-05-21T04:35:09;22.57;;;13.63;;
1725;SDS011;41776;48.260;8.928;2023-05-21T04:37:36;25.10;;;12.67;;
1725;SDS011;41776;48.260;8.928;2023-05-21T04:40:06;20.83;;;13.17;;
1725;SDS011;41776;48.260;8.928;2023-05-21T04:42:34;26.17;;;14.07;;
1725;SDS011;41776;48.260;8.928;2023-05-21T04:45:00;20.60;;;12.63;;
1725;SDS011;41776;48.260;8.928;2023-05-21T04:47:31;23.07;;;13.43;;
1725;SDS011;41776;48.260;8.928;2023-05-21T04:49:59;20.87;;;12.30;;
1725;SDS011;41776;48.260;8.928;2023-05-21T04:52:25;17.20;;;11.33;;
1725;SDS011;41776;48.260;8.928;2023-05-21T04:54:53;18.13;;;11.97;;
1725;SDS011;41776;48.260;8.928;2023-05-21T04:57:20;21.87;;;12.37;;
1725;SDS011;41776;48.260;8.928;2023-05-21T04:59:48;22.13;;;12.98;;
1725;SDS011;41776;48.260;8.928;2023-05-21T05:02:15;19.65;;;12.15;;
1725;SDS011;41776;48.260;8.928;2023-05-21T05:04:42;18.80;;;11.52;;
1725;SDS011;41776;48.260;8.928;2023-05-21T05:07:09;21.13;;;12.35;;
1725;SDS011;41776;48.260;8.928;2023-05-21T05:09:36;23.77;;;13.63;;
1725;SDS011;41776;48.260;8.928;2023-05-21T05:12:02;21.63;;;13.18;;
1725;SDS011;41776;48.260;8.928;2023-05-21T05:14:29;18.83;;;11.88;;
1725;SDS011;41776;48.260;8.928;2023-05-21T05:16:56;20.40;;;11.75;;
1725;SDS011;41776;48.260;8.928;2023-05-21T05:19:24;17.10;;;11.75;;
1725;SDS011;41776;48.260;8.928;2023-05-21T05:21:52;19.00;;;11.57;;
1725;SDS011;41776;48.260;8.928;2023-05-21T05:24:22;15.13;;;10.20;;
1725;SDS011;41776;48.260;8.928;2023-05-21T05:26:48;17.35;;;10.80;;
1725;SDS011;41776;48.260;8.928;2023-05-21T05:29:15;18.63;;;10.85;;
1725;SDS011;41776;48.260;8.928;2023-05-21T05:31:41;14.35;;;9.95;;
1725;SDS011;41776;48.260;8.928;2023-05-21T05:34:07;14.00;;;9.73;;
1725;SDS011;41776;48.260;8.928;2023-05-21T05:36:34;14.00;;;9.45;;
1725;SDS011;41776;48.260;8.928;2023-05-21T05:39:02;13.95;;;9.60;;
1725;SDS011;41776;48.260;8.928;2023-05-21T05:41:29;15.50;;;9.93;;
1725;SDS011;41776;48.260;8.928;2023-05-21T05:43:55;16.60;;;10.48;;
1725;SDS011;41776;48.260;8.928;2023-05-21T05:46:22;14.60;;;10.02;;
1725;SDS011;41776;48.260;8.928;2023-05-21T05:48:49;15.70;;;9.93;;
1725;SDS011;41776;48.260;8.928;2023-05-21T05:51:15;13.95;;;9.65;;
1725;SDS011;41776;48.260;8.928;2023-05-21T05:53:42;16.63;;;9.75;;
1725;SDS011;41776;48.260;8.928;2023-05-21T05:56:10;16.95;;;9.77;;
1725;SDS011;41776;48.260;8.928;2023-05-21T05:58:36;15.65;;;9.52;;
1725;SDS011;41776;48.260;8.928;2023-05-21T06:01:03;13.40;;;8.98;;
1725;SDS011;41776;48.260;8.928;2023-05-21T06:03:29;16.25;;;10.32;;
1725;SDS011;41776;48.260;8.928;2023-05-21T06:05:56;16.83;;;9.77;;
1725;SDS011;41776;48.260;8.928;2023-05-21T06:08:22;15.65;;;9.27;;
1725;SDS011;41776;48.260;8.928;2023-05-21T06:10:49;15.63;;;10.27;;
1725;SDS011;41776;48.260;8.928;2023-05-21T06:13:17;16.13;;;10.38;;
1725;SDS011;41776;48.260;8.928;2023-05-21T06:15:43;19.73;;;10.68;;
1725;SDS011;41776;48.260;8.928;2023-05-21T06:18:10;14.63;;;10.02;;
1725;SDS011;41776;48.260;8.928;2023-05-21T06:20:36;14.05;;;10.13;;
1725;SDS011;41776;48.260;8.928;2023-05-21T06:23:06;21.08;;;10.65;;
1725;SDS011;41776;48.260;8.928;2023-05-21T06:25:32;18.42;;;11.13;;
1725;SDS011;41776;48.260;8.928;2023-05-21T06:27:59;16.33;;;10.60;;
1725;SDS011;41776;48.260;8.928;2023-05-21T06:30:27;18.15;;;10.00;;
1725;SDS011;41776;48.260;8.928;2023-05-21T06:32:53;14.50;;;10.45;;
1725;SDS011;41776;48.260;8.928;2023-05-21T06:35:21;21.33;;;10.65;;
1725;SDS011;41776;48.260;8.928;2023-05-21T06:37:47;16.58;;;9.95;;
1725;SDS011;41776;48.260;8.928;2023-05-21T06:40:14;14.45;;;10.02;;
1725;SDS011;41776;48.260;8.928;2023-05-21T06:42:41;14.15;;;10.38;;
1725;SDS011;41776;48.260;8.928;2023-05-21T06:45:07;16.10;;;10.43;;
1725;SDS011;41776;48.260;8.928;2023-05-21T06:47:36;14.80;;;10.38;;
1725;SDS011;41776;48.260;8.928;2023-05-21T06:50:03;15.02;;;10.52;;
1725;SDS011;41776;48.260;8.928;2023-05-21T06:52:30;17.35;;;10.45;;
1725;SDS011;41776;48.260;8.928;2023-05-21T06:54:56;16.60;;;10.13;;
1725;SDS011;41776;48.260;8.928;2023-05-21T06:57:23;16.00;;;9.23;;
1725;SDS011;41776;48.260;8.928;2023-05-21T06:59:49;16.17;;;8.88;;
1725;SDS011;41776;48.260;8.928;2023-05-21T07:02:16;13.70;;;9.55;;
1725;SDS011;41776;48.260;8.928;2023-05-21T07:04:44;15.52;;;10.13;;
1725;SDS011;41776;48.260;8.928;2023-05-21T07:07:10;14.55;;;9.55;;
1725;SDS011;41776;48.260;8.928;2023-05-21T07:09:37;13.05;;;8.93;;
1725;SDS011;41776;48.260;8.928;2023-05-21T07:12:04;15.40;;;8.98;;
1725;SDS011;41776;48.260;8.928;2023-05-21T07:14:31;14.40;;;9.40;;
1725;SDS011;41776;48.260;8.928;2023-05-21T07:16:57;14.38;;;9.43;;
1725;SDS011;41776;48.260;8.928;2023-05-21T07:19:24;14.80;;;9.18;;
1725;SDS011;41776;48.260;8.928;2023-05-21T07:21:51;13.38;;;10.20;;
1725;SDS011;41776;48.260;8.928;2023-05-21T07:24:18;16.42;;;10.73;;
1725;SDS011;41776;48.260;8.928;2023-05-21T07:26:45;16.52;;;9.38;;
1725;SDS011;41776;48.260;8.928;2023-05-21T07:29:11;17.08;;;10.57;;
1725;SDS011;41776;48.260;8.928;2023-05-21T07:31:38;17.33;;;10.48;;
1725;SDS011;41776;48.260;8.928;2023-05-21T07:34:04;13.48;;;8.88;;
1725;SDS011;41776;48.260;8.928;2023-05-21T07:36:31;15.35;;;10.13;;
1725;SDS011;41776;48.260;8.928;2023-05-21T07:38:59;15.30;;;9.40;;
1725;SDS011;41776;48.260;8.928;2023-05-21T07:41:26;12.60;;;8.45;;
1725;SDS011;41776;48.260;8.928;2023-05-21T07:43:53;20.10;;;9.93;;
1725;SDS011;41776;48.260;8.928;2023-05-21T07:46:19;16.15;;;8.50;;
1725;SDS011;41776;48.260;8.928;2023-05-21T07:48:46;15.30;;;9.52;;
1725;SDS011;41776;48.260;8.928;2023-05-21T07:51:13;16.02;;;9.82;;
1725;SDS011;41776;48.260;8.928;2023-05-21T07:53:40;12.98;;;8.57;;
1725;SDS011;41776;48.260;8.928;2023-05-21T07:56:08;17.70;;;9.30;;
1725;SDS011;41776;48.260;8.928;2023-05-21T07:58:35;14.20;;;8.93;;
1725;SDS011;41776;48.260;8.928;2023-05-21T08:01:01;22.58;;;9.65;;
1725;SDS011;41776;48.260;8.928;2023-05-21T08:03:28;16.70;;;9.68;;
1725;SDS011;41776;48.260;8.928;2023-05-21T08:05:55;12.65;;;8.90;;
1725;SDS011;41776;48.260;8.928;2023-05-21T08:08:21;12.60;;;8.68;;
1725;SDS011;41776;48.260;8.928;2023-05-21T08:10:48;15.27;;;9.40;;
1725;SDS011;41776;48.260;8.928;2023-05-21T08:13:16;16.30;;;9.38;;
1725;SDS011;41776;48.260;8.928;2023-05-21T08:15:42;14.88;;;10.50;;
1725;SDS011;41776;48.260;8.928;2023-05-21T08:18:09;13.93;;;9.45;;
1725;SDS011;41776;48.260;8.928;2023-05-21T08:20:36;11.98;;;8.85;;
1725;SDS011;41776;48.260;8.928;2023-05-21T08:23:03;17.00;;;9.93;;
1725;SDS011;41776;48.260;8.928;2023-05-21T08:25:30;17.35;;;9.93;;
1725;SDS011;41776;48.260;8.928;2023-05-21T08:27:56;12.18;;;9.65;;
1725;SDS011;41776;48.260;8.928;2023-05-21T08:30:24;17.35;;;9.90;;
1725;SDS011;41776;48.260;8.928;2023-05-21T08:32:51;14.68;;;10.13;;
1725;SDS011;41776;48.260;8.928;2023-05-21T08:35:18;16.15;;;10.13;;
1725;SDS011;41776;48.260;8.928;2023-05-21T08:37:45;16.08;;;10.18;;
1725;SDS011;41776;48.260;8.928;2023-05-21T08:40:12;18.45;;;10.02;;
1725;SDS011;41776;48.260;8.928;2023-05-21T08:42:39;14.57;;;9.82;;
1725;SDS011;41776;48.260;8.928;2023-05-21T08:45:11;13.63;;;9.73;;
1725;SDS011;41776;48.260;8.928;2023-05-21T08:47:41;17.20;;;10.57;;
1725;SDS011;41776;48.260;8.928;2023-05-21T08:50:09;17.20;;;9.43;;
1725;SDS011;41776;48.260;8.928;2023-05-21T08:52:36;13.30;;;10.07;;
1725;SDS011;41776;48.260;8.928;2023-05-21T08:55:03;15.88;;;10.10;;
1725;SDS011;41776;48.260;8.928;2023-05-21T08:57:31;19.92;;;10.57;;
1725;SDS011;41776;48.260;8.928;2023-05-21T08:59:57;14.88;;;9.85;;
1725;SDS011;41776;48.260;8.928;2023-05-21T09:02:25;15.20;;;9.98;;
1725;SDS011;41776;48.260;8.928;2023-05-21T09:04:55;14.85;;;10.52;;
1725;SDS011;41776;48.260;8.928;2023-05-21T09:07:23;14.77;;;9.90;;
1725;SDS011;41776;48.260;8.928;2023-05-21T09:09:53;14.48;;;10.00;;
1725;SDS011;41776;48.260;8.928;2023-05-21T09:12:22;17.48;;;10.35;;
1725;SDS011;41776;48.260;8.928;2023-05-21T09:14:49;14.85;;;10.27;;
1725;SDS011;41776;48.260;8.928;2023-05-21T09:17:16;15.75;;;10.27;;
1725;SDS011;41776;48.260;8.928;2023-05-21T09:22:33;14.20;;;9.35;;
1725;SDS011;41776;48.260;8.928;2023-05-21T09:25:02;14.43;;;10.25;;
1725;SDS011;41776;48.260;8.928;2023-05-21T09:27:30;14.25;;;9.93;;
1725;SDS011;41776;48.260;8.928;2023-05-21T09:29:57;17.25;;;9.95;;
1725;SDS011;41776;48.260;8.928;2023-05-21T09:32:24;15.15;;;9.70;;
1725;SDS011;41776;48.260;8.928;2023-05-21T09:34:50;16.80;;;10.05;;
1725;SDS011;41776;48.260;8.928;2023-05-21T09:37:18;14.93;;;9.90;;
1725;SDS011;41776;48.260;8.928;2023-05-21T09:39:45;18.98;;;11.10;;
1725;SDS011;41776;48.260;8.928;2023-05-21T09:42:12;19.52;;;10.50;;
1725;SDS011;41776;48.260;8.928;2023-05-21T09:44:41;18.00;;;11.43;;
1725;SDS011;41776;48.260;8.928;2023-05-21T09:47:08;18.38;;;10.40;;
1725;SDS011;41776;48.260;8.928;2023-05-21T09:49:35;16.20;;;10.27;;
1725;SDS011;41776;48.260;8.928;2023-05-21T09:52:02;14.98;;;9.80;;
1725;SDS011;41776;48.260;8.928;2023-05-21T09:54:31;15.50;;;10.80;;
1725;SDS011;41776;48.260;8.928;2023-05-21T09:56:59;21.55;;;10.80;;
1725;SDS011;41776;48.260;8.928;2023-05-21T09:59:34;16.77;;;9.77;;
1725;SDS011;41776;48.260;8.928;2023-05-21T10:02:01;14.48;;;9.77;;
1725;SDS011;41776;48.260;8.928;2023-05-21T10:04:27;19.08;;;11.45;;
1725;SDS011;41776;48.260;8.928;2023-05-21T10:06:55;15.48;;;10.15;;
1725;SDS011;41776;48.260;8.928;2023-05-21T10:09:24;13.60;;;9.77;;
1725;SDS011;41776;48.260;8.928;2023-05-21T10:11:55;15.85;;;9.93;;
1725;SDS011;41776;48.260;8.928;2023-05-21T10:14:24;16.58;;;10.27;;
1725;SDS011;41776;48.260;8.928;2023-05-21T10:16:53;14.38;;;9.27;;
1725;SDS011;41776;48.260;8.928;2023-05-21T10:19:20;14.52;;;9.23;;
1725;SDS011;41776;48.260;8.928;2023-05-21T10:21:47;16.52;;;9.63;;
1725;SDS011;41776;48.260;8.928;2023-05-21T10:24:15;13.27;;;9.55;;
1725;SDS011;41776;48.260;8.928;2023-05-21T10:26:42;14.82;;;9.93;;
1725;SDS011;41776;48.260;8.928;2023-05-21T10:29:12;14.57;;;10.43;;
1725;SDS011;41776;48.260;8.928;2023-05-21T10:31:40;16.73;;;10.82;;
1725;SDS011;41776;48.260;8.928;2023-05-21T10:34:13;18.67;;;10.80;;
1725;SDS011;41776;48.260;8.928;2023-05-21T10:36:40;20.58;;;12.45;;
1725;SDS011;41776;48.260;8.928;2023-05-21T10:39:08;27.25;;;14.15;;
1725;SDS011;41776;48.260;8.928;2023-05-21T10:41:39;15.63;;;9.63;;
1725;SDS011;41776;48.260;8.928;2023-05-21T10:44:15;13.63;;;9.30;;
1725;SDS011;41776;48.260;8.928;2023-05-21T10:50:02;12.38;;;8.02;;
1725;SDS011;41776;48.260;8.928;2023-05-21T10:52:49;15.20;;;9.45;;
1725;SDS011;41776;48.260;8.928;2023-05-21T10:55:32;16.77;;;9.85;;
1725;SDS011;41776;48.260;8.928;2023-05-21T10:58:14;16.05;;;9.68;;
1725;SDS011;41776;48.260;8.928;2023-05-21T11:01:02;21.35;;;10.27;;
1725;SDS011;41776;48.260;8.928;2023-05-21T11:03:30;16.15;;;10.18;;
1725;SDS011;41776;48.260;8.928;2023-05-21T11:05:58;15.48;;;10.65;;
1725;SDS011;41776;48.260;8.928;2023-05-21T11:08:28;13.68;;;10.32;;
1725;SDS011;41776;48.260;8.928;2023-05-21T11:10:56;14.15;;;9.60;;
1725;SDS011;41776;48.260;8.928;2023-05-21T11:13:23;17.48;;;10.20;;
1725;SDS011;41776;48.260;8.928;2023-05-21T11:16:06;14.80;;;9.30;;
1725;SDS011;41776;48.260;8.928;2023-05-21T11:21:27;12.10;;;8.60;;
1725;SDS011;41776;48.260;8.928;2023-05-21T11:23:55;12.25;;;8.15;;
1725;SDS011;41776;48.260;8.928;2023-05-21T11:26:27;15.82;;;10.25;;
1725;SDS011;41776;48.260;8.928;2023-05-21T11:29:06;14.05;;;9.48;;
1725;SDS011;41776;48.260;8.928;2023-05-21T11:31:34;12.88;;;8.65;;
1725;SDS011;41776;48.260;8.928;2023-05-21T11:34:09;16.65;;;8.65;;
1725;SDS011;41776;48.260;8.928;2023-05-21T11:36:37;13.23;;;8.27;;
1725;SDS011;41776;48.260;8.928;2023-05-21T11:39:08;15.43;;;8.85;;
1725;SDS011;41776;48.260;8.928;2023-05-21T11:44:17;12.88;;;8.02;;
1725;SDS011;41776;48.260;8.928;2023-05-21T11:46:48;11.50;;;8.90;;
1725;SDS011;41776;48.260;8.928;2023-05-21T11:49:17;11.65;;;8.18;;
1725;SDS011;41776;48.260;8.928;2023-05-21T11:51:44;13.40;;;8.73;;
1725;SDS011;41776;48.260;8.928;2023-05-21T11:54:13;13.93;;;8.32;;
1725;SDS011;41776;48.260;8.928;2023-05-21T11:56:41;12.30;;;8.02;;
1725;SDS011;41776;48.260;8.928;2023-05-21T11:59:12;12.45;;;8.23;;
1725;SDS011;41776;48.260;8.928;2023-05-21T12:01:40;11.48;;;8.55;;
1725;SDS011;41776;48.260;8.928;2023-05-21T12:04:11;12.55;;;8.35;;
1725;SDS011;41776;48.260;8.928;2023-05-21T12:06:40;12.45;;;8.15;;
1725;SDS011;41776;48.260;8.928;2023-05-21T12:09:08;22.42;;;8.27;;
1725;SDS011;41776;48.260;8.928;2023-05-21T12:11:35;11.52;;;8.05;;
1725;SDS011;41776;48.260;8.928;2023-05-21T12:14:05;12.20;;;7.57;;
1725;SDS011;41776;48.260;8.928;2023-05-21T12:16:32;14.35;;;7.78;;
1725;SDS011;41776;48.260;8.928;2023-05-21T12:18:59;13.48;;;7.18;;
1725;SDS011;41776;48.260;8.928;2023-05-21T12:21:27;8.43;;;7.22;;
1725;SDS011;41776;48.260;8.928;2023-05-21T12:23:54;10.52;;;7.90;;
1725;SDS011;41776;48.260;8.928;2023-05-21T12:26:21;13.93;;;7.80;;
1725;SDS011;41776;48.260;8.928;2023-05-21T12:28:49;12.38;;;7.03;;
1725;SDS011;41776;48.260;8.928;2023-05-21T12:31:17;10.25;;;7.35;;
1725;SDS011;41776;48.260;8.928;2023-05-21T12:33:43;9.52;;;7.45;;
1725;SDS011;41776;48.260;8.928;2023-05-21T12:36:18;13.23;;;7.63;;
1725;SDS011;41776;48.260;8.928;2023-05-21T12:38:48;11.75;;;7.70;;
1725;SDS011;41776;48.260;8.928;2023-05-21T12:41:15;10.98;;;8.15;;
1725;SDS011;41776;48.260;8.928;2023-05-21T12:43:42;12.80;;;8.20;;
1725;SDS011;41776;48.260;8.928;2023-05-21T12:46:09;13.02;;;8.57;;
1725;SDS011;41776;48.260;8.928;2023-05-21T12:48:38;10.63;;;7.68;;
1725;SDS011;41776;48.260;8.928;2023-05-21T12:51:05;9.63;;;7.40;;
1725;SDS011;41776;48.260;8.928;2023-05-21T12:53:35;9.82;;;7.00;;
1725;SDS011;41776;48.260;8.928;2023-05-21T12:56:10;7.78;;;5.90;;
1725;SDS011;41776;48.260;8.928;2023-05-21T12:58:37;10.68;;;6.97;;
1725;SDS011;41776;48.260;8.928;2023-05-21T13:01:04;7.90;;;5.93;;
1725;SDS011;41776;48.260;8.928;2023-05-21T13:03:31;10.10;;;6.57;;
1725;SDS011;41776;48.260;8.928;2023-05-21T13:05:58;12.10;;;6.40;;
1725;SDS011;41776;48.260;8.928;2023-05-21T13:08:26;8.73;;;6.30;;
1725;SDS011;41776;48.260;8.928;2023-05-21T13:10:53;10.85;;;6.72;;
1725;SDS011;41776;48.260;8.928;2023-05-21T13:13:21;9.50;;;6.60;;
1725;SDS011;41776;48.260;8.928;2023-05-21T13:15:49;9.68;;;7.18;;
1725;SDS011;41776;48.260;8.928;2023-05-21T13:18:17;9.23;;;6.90;;
1725;SDS011;41776;48.260;8.928;2023-05-21T13:20:44;9.13;;;6.80;;
1725;SDS011;41776;48.260;8.928;2023-05-21T13:23:11;9.05;;;6.60;;
1725;SDS011;41776;48.260;8.928;2023-05-21T13:25:39;7.78;;;6.07;;
1725;SDS011;41776;48.260;8.928;2023-05-21T13:28:05;9.18;;;6.47;;
1725;SDS011;41776;48.260;8.928;2023-05-21T13:30:35;6.18;;;4.10;;
1725;SDS011;41776;48.260;8.928;2023-05-21T13:33:02;5.60;;;4.15;;
1725;SDS011;41776;48.260;8.928;2023-05-21T13:35:28;5.10;;;3.80;;
1725;SDS011;41776;48.260;8.928;2023-05-21T13:37:56;9.00;;;4.07;;
1725;SDS011;41776;48.260;8.928;2023-05-21T13:40:22;4.68;;;3.47;;
1725;SDS011;41776;48.260;8.928;2023-05-21T13:42:49;6.15;;;3.50;;
1725;SDS011;41776;48.260;8.928;2023-05-21T13:45:16;5.05;;;3.72;;
1725;SDS011;41776;48.260;8.928;2023-05-21T13:47:45;4.93;;;3.55;;
1725;SDS011;41776;48.260;8.928;2023-05-21T13:50:12;8.35;;;3.90;;
1725;SDS011;41776;48.260;8.928;2023-05-21T13:52:39;6.35;;;3.35;;
1725;SDS011;41776;48.260;8.928;2023-05-21T13:55:06;5.00;;;3.72;;
1725;SDS011;41776;48.260;8.928;2023-05-21T13:57:33;5.18;;;3.83;;
1725;SDS011;41776;48.260;8.928;2023-05-21T14:00:00;7.63;;;3.88;;
1725;SDS011;41776;48.260;8.928;2023-05-21T14:02:26;10.40;;;3.67;;
1725;SDS011;41776;48.260;8.928;2023-05-21T14:04:54;5.15;;;3.20;;
1725;SDS011;41776;48.260;8.928;2023-05-21T14:07:21;5.38;;;3.70;;
1725;SDS011;41776;48.260;8.928;2023-05-21T14:09:48;5.18;;;3.60;;
1725;SDS011;41776;48.260;8.928;2023-05-21T14:12:14;7.97;;;3.63;;
1725;SDS011;41776;48.260;8.928;2023-05-21T14:14:41;5.75;;;3.33;;
1725;SDS011;41776;48.260;8.928;2023-05-21T14:17:07;6.20;;;3.22;;
1725;SDS011;41776;48.260;8.928;2023-05-21T14:19:34;7.40;;;2.78;;
1725;SDS011;41776;48.260;8.928;2023-05-21T14:22:02;3.80;;;2.60;;
1725;SDS011;41776;48.260;8.928;2023-05-21T14:24:28;6.15;;;2.70;;
1725;SDS011;41776;48.260;8.928;2023-05-21T14:26:55;3.47;;;2.60;;
1725;SDS011;41776;48.260;8.928;2023-05-21T14:29:21;3.35;;;2.55;;
1725;SDS011;41776;48.260;8.928;2023-05-21T14:31:48;4.00;;;2.53;;
1725;SDS011;41776;48.260;8.928;2023-05-21T14:34:14;3.90;;;2.60;;
1725;SDS011;41776;48.260;8.928;2023-05-21T14:36:41;4.72;;;3.03;;
1725;SDS011;41776;48.260;8.928;2023-05-21T14:39:09;5.57;;;2.63;;
1725;SDS011;41776;48.260;8.928;2023-05-21T14:41:37;3.78;;;2.45;;
1725;SDS011;41776;48.260;8.928;2023-05-21T14:44:03;4.68;;;2.80;;
1725;SDS011;41776;48.260;8.928;2023-05-21T14:46:33;2.92;;;2.42;;
1725;SDS011;41776;48.260;8.928;2023-05-21T14:49:00;4.38;;;2.60;;
1725;SDS011;41776;48.260;8.928;2023-05-21T14:51:27;5.13;;;2.85;;
1725;SDS011;41776;48.260;8.928;2023-05-21T14:53:54;3.75;;;2.67;;
1725;SDS011;41776;48.260;8.928;2023-05-21T14:56:22;6.85;;;2.70;;
1725;SDS011;41776;48.260;8.928;2023-05-21T14:58:51;6.93;;;2.47;;